Time;durP1;ratioP1;P1;durP2;ratioP2;P2;SDS_P1;SDS_P2;PMS_P1;PMS_P2;Temp;Humidity;BMP_temperature;BMP_pressure;BME280_temperature;BME280_humidity;BME280_pressure;Samples;Min_cycle;Max_cycle;Signal;HPM_P1;HPM_P2
2023/02/01 06:31:15;;;;;;;;;2.75;1.50;;;;;8.31;100.00;102601.09;4947114;23;50025;-79
2023/02/01 06:33:40;;;;;;;;;8.00;6.00;;;;;8.25;100.00;102589.34;4934721;28;50041;-77
2023/02/01 06:36:07;;;;;;;;;4.25;2.25;;;;;8.15;100.00;102573.91;4935148;28;49762;-75
2023/02/01 06:38:36;;;;;;;;;9.75;5.50;;;;;8.43;100.00;102641.91;4934755;28;49802;-77
2023/02/01 06:41:03;;;;;;;;;5.50;5.50;;;;;8.14;100.00;102573.00;4935062;28;49832;-73
2023/02/01 06:43:29;;;;;;;;;7.75;6.00;;;;;8.43;100.00;102629.72;4934990;28;49750;-77
2023/02/01 06:46:01;;;;;;;;;6.00;6.00;;;;;8.21;100.00;102603.06;4935055;28;50056;-78
2023/02/01 06:48:26;;;;;;;;;7.00;6.00;;;;;8.30;100.00;102609.75;4934923;28;50367;-77
2023/02/01 06:50:51;;;;;;;;;6.00;4.25;;;;;8.21;100.00;102603.97;4934757;28;49989;-79
2023/02/01 06:53:17;;;;;;;;;5.75;4.25;;;;;8.18;100.00;102606.38;4934599;28;49753;-79
2023/02/01 06:55:51;;;;;;;;;10.75;6.75;;;;;8.22;100.00;102634.56;4933497;28;49845;-77
2023/02/01 06:58:16;;;;;;;;;3.00;3.00;;;;;8.13;100.00;102618.31;4934547;28;50469;-76
2023/02/01 07:00:42;;;;;;;;;10.75;5.50;;;;;7.91;100.00;102600.41;4934232;28;57702;-78
2023/02/01 07:03:07;;;;;;;;;7.00;5.00;;;;;7.99;100.00;102620.06;4935676;28;64514;-87
2023/02/01 07:05:32;;;;;;;;;5.25;5.25;;;;;7.98;100.00;102618.25;4935092;28;49968;-78
2023/02/01 07:07:58;;;;;;;;;7.50;6.00;;;;;7.69;100.00;102569.41;4934298;28;55205;-74
2023/02/01 07:10:23;;;;;;;;;9.50;4.75;;;;;7.89;100.00;102612.47;4934497;28;49774;-76
2023/02/01 07:12:48;;;;;;;;;8.00;6.00;;;;;7.98;100.00;102636.56;4933769;28;58456;-66
2023/02/01 07:15:14;;;;;;;;;5.50;4.25;;;;;7.66;100.00;102602.31;4933391;28;49957;-75
2023/02/01 07:17:39;;;;;;;;;11.00;7.00;;;;;7.73;100.00;102625.44;4934304;28;49936;-75
2023/02/01 07:20:05;;;;;;;;;8.75;5.00;;;;;7.84;100.00;102655.75;4933938;28;61949;-76
2023/02/01 07:22:31;;;;;;;;;6.25;3.00;;;;;7.45;100.00;102604.50;4934483;28;49639;-76
2023/02/01 07:24:56;;;;;;;;;4.00;3.25;;;;;7.52;100.00;102611.00;4934619;28;49733;-76
2023/02/01 07:27:24;;;;;;;;;5.25;3.00;;;;;7.89;100.00;102677.84;4934207;28;49726;-76
2023/02/01 07:29:49;;;;;;;;;8.00;7.00;;;;;7.69;100.00;102650.47;4933995;28;49877;-75
2023/02/01 07:32:17;;;;;;;;;7.75;4.00;;;;;7.79;100.00;102670.25;4934166;28;49878;-78
2023/02/01 07:34:43;;;;;;;;;8.50;4.75;;;;;7.59;100.00;102642.84;4934504;28;49845;-72
2023/02/01 07:37:08;;;;;;;;;5.00;3.00;;;;;7.64;100.00;102645.78;4934013;28;50788;-76
2023/02/01 07:39:34;;;;;;;;;6.25;5.75;;;;;7.45;100.00;102615.88;4933461;28;66319;-74
2023/02/01 07:41:59;;;;;;;;;10.25;6.25;;;;;7.84;100.00;102691.47;4934014;28;50245;-72
2023/02/01 07:44:25;;;;;;;;;5.75;5.75;;;;;7.70;100.00;102677.50;4934424;28;49767;-76
2023/02/01 07:46:50;;;;;;;;;9.25;6.50;;;;;7.75;100.00;102683.94;4934463;28;50685;-83
2023/02/01 07:49:17;;;;;;;;;9.25;6.00;;;;;7.71;100.00;102684.53;4934383;28;49782;-80
2023/02/01 07:51:42;;;;;;;;;10.00;6.00;;;;;7.16;100.00;102587.91;4934448;28;49711;-89
2023/02/01 07:54:07;;;;;;;;;6.25;5.00;;;;;7.92;100.00;102734.69;4934121;28;49940;-83
2023/02/01 07:56:33;;;;;;;;;6.25;6.25;;;;;7.78;100.00;102684.13;4935346;28;50414;-88
2023/02/01 07:59:00;;;;;;;;;6.25;6.00;;;;;7.68;100.00;102656.50;4934617;28;49711;-76
2023/02/01 08:01:27;;;;;;;;;6.25;4.75;;;;;7.77;100.00;102669.25;4932995;28;49722;-80
2023/02/01 08:03:59;;;;;;;;;5.00;5.00;;;;;7.86;100.00;102671.53;4934507;28;49695;-87
2023/02/01 08:06:25;;;;;;;;;8.00;4.00;;;;;7.68;100.00;102627.75;4934658;28;49705;-87
2023/02/01 08:08:52;;;;;;;;;7.75;5.00;;;;;7.56;100.00;102610.41;4923989;28;50050;-89
2023/02/01 08:11:19;;;;;;;;;9.75;5.00;;;;;7.49;100.00;102571.63;4928354;28;50761;-86
2023/02/01 08:13:45;;;;;;;;;2.00;1.00;;;;;8.31;100.00;102712.72;4932796;28;49989;-86
2023/02/01 08:16:12;;;;;;;;;4.25;4.25;;;;;7.92;100.00;102632.69;4934565;28;49826;-85
2023/02/01 08:18:38;;;;;;;;;4.25;2.50;;;;;7.50;100.00;102542.06;4935320;28;49857;-87
2023/02/01 08:21:21;;;;;;;;;6.00;6.00;;;;;7.24;100.00;102502.19;4935678;28;49619;-90
2023/02/01 08:23:47;;;;;;;;;8.50;6.25;;;;;8.11;100.00;102646.09;4935811;28;49936;-89
2023/02/01 08:26:17;;;;;;;;;6.25;6.00;;;;;7.68;100.00;102549.31;4935114;28;50096;-86
2023/02/01 08:28:46;;;;;;;;;10.50;7.50;;;;;7.51;100.00;102517.72;4935323;28;49851;-88
2023/02/01 08:31:14;;;;;;;;;14.75;9.00;;;;;8.28;100.00;102637.50;4935399;28;49604;-88
2023/02/01 08:33:42;;;;;;;;;18.00;12.75;;;;;7.80;100.00;102541.31;4936153;28;49952;-88
2023/02/01 08:36:09;;;;;;;;;8.75;7.00;;;;;8.62;100.00;102685.78;4936467;28;50133;-88
2023/02/01 08:38:36;;;;;;;;;15.25;8.75;;;;;8.65;100.00;102680.72;4936622;28;49935;-89
2023/02/01 08:41:11;;;;;;;;;8.25;6.75;;;;;8.15;100.00;102577.44;4937162;28;49917;-86
2023/02/01 08:43:37;;;;;;;;;9.25;7.50;;;;;8.74;100.00;102676.03;4936067;28;50139;-84
2023/02/01 08:46:03;;;;;;;;;3.50;3.50;;;;;8.46;100.00;102603.72;4935301;28;50637;-90
2023/02/01 08:48:28;;;;;;;;;9.25;9.25;;;;;8.62;100.00;102609.88;4935702;28;49794;-88
2023/02/01 08:50:54;;;;;;;;;9.25;6.25;;;;;8.52;100.00;102606.72;4934453;28;49761;-83
2023/02/01 08:53:19;;;;;;;;;6.00;4.50;;;;;8.97;100.00;102651.16;4935361;28;49900;-86
2023/02/01 08:55:46;;;;;;;;;11.75;6.00;;;;;9.07;100.00;102651.78;4934024;28;49787;-85
2023/02/01 08:58:13;;;;;;;;;4.50;4.25;;;;;7.88;100.00;102425.00;4934445;28;49974;-82
2023/02/01 09:00:39;;;;;;;;;9.00;7.25;;;;;9.20;100.00;102676.97;4930847;28;50032;-87
2023/02/01 09:03:04;;;;;;;;;7.75;6.75;;;;;9.14;100.00;102634.69;4934454;28;49830;-86
2023/02/01 09:05:29;;;;;;;;;9.25;5.75;;;;;8.78;100.00;102583.72;4934420;28;50779;-86
2023/02/01 09:07:55;;;;;;;;;7.00;5.75;;;;;8.36;100.00;102499.31;4934719;28;49797;-86
2023/02/01 09:10:20;;;;;;;;;9.00;6.75;;;;;7.68;100.00;102389.88;4934724;28;49929;-83
2023/02/01 09:12:45;;;;;;;;;8.25;5.50;;;;;8.54;100.00;102542.25;4934535;28;49889;-86
2023/02/01 09:15:11;;;;;;;;;5.50;3.25;;;;;9.09;100.00;102617.81;4934178;28;50784;-86
2023/02/01 09:17:37;;;;;;;;;10.25;8.25;;;;;8.42;100.00;102504.91;4931647;28;50381;-82
2023/02/01 09:20:03;;;;;;;;;5.50;5.50;;;;;9.11;100.00;102597.84;4933448;28;49898;-80
2023/02/01 09:22:29;;;;;;;;;7.25;6.25;;;;;7.96;100.00;102396.69;4934853;28;50305;-86
2023/02/01 09:24:54;;;;;;;;;6.75;3.00;;;;;8.62;100.00;102554.88;4932585;28;51450;-83
2023/02/01 09:27:20;;;;;;;;;5.75;3.50;;;;;9.66;100.00;102690.03;4934411;28;49735;-84
2023/02/01 09:29:49;;;;;;;;;6.75;6.75;;;;;9.71;100.00;102713.06;4934270;28;49864;-80
2023/02/01 09:32:14;;;;;;;;;6.00;5.00;;;;;8.68;100.00;102510.69;4934022;28;50190;-86
2023/02/01 09:34:40;;;;;;;;;7.25;4.50;;;;;9.83;100.00;102749.53;4933979;28;50779;-86
2023/02/01 09:37:05;;;;;;;;;4.00;3.00;;;;;9.64;100.00;102695.16;4933575;28;49885;-84
2023/02/01 09:39:30;;;;;;;;;3.00;3.00;;;;;9.15;100.00;102600.69;4932528;28;49789;-84
2023/02/01 09:41:59;;;;;;;;;10.75;6.00;;;;;9.82;100.00;102731.09;4932992;28;49708;-85
2023/02/01 09:44:49;;;;;;;;;11.75;7.50;;;;;9.83;100.00;102736.44;4927757;28;51606;-81
2023/02/01 09:47:18;;;;;;;;;3.00;2.00;;;;;9.16;100.00;102633.03;4932026;28;49915;-80
2023/02/01 09:49:55;;;;;;;;;9.50;6.50;;;;;9.79;100.00;102731.84;4931945;28;49687;-82
2023/02/01 09:52:29;;;;;;;;;3.75;2.00;;;;;9.50;100.00;102669.00;4932084;28;49925;-83
2023/02/01 09:55:03;;;;;;;;;7.25;3.50;;;;;9.26;100.00;102629.22;4931157;28;49971;-82
2023/02/01 09:57:44;;;;;;;;;2.75;2.50;;;;;9.16;100.00;102594.63;4932102;28;50122;-82
2023/02/01 10:00:21;;;;;;;;;6.75;3.75;;;;;9.48;100.00;102662.78;4933404;28;49744;-83
2023/02/01 10:02:46;;;;;;;;;10.00;6.25;;;;;9.39;100.00;102629.09;4933772;28;49882;-82
2023/02/01 10:05:19;;;;;;;;;11.00;3.00;;;;;9.98;100.00;102732.03;4934763;28;50090;-81
2023/02/01 10:07:54;;;;;;;;;8.75;4.00;;;;;10.03;100.00;102735.78;4933673;28;49777;-80
2023/02/01 10:10:30;;;;;;;;;4.75;2.75;;;;;10.14;100.00;102723.28;4934341;28;50188;-80
2023/02/01 10:13:19;;;;;;;;;4.00;3.75;;;;;9.71;100.00;102630.84;4929245;28;49773;-83
2023/02/01 10:16:00;;;;;;;;;4.25;4.25;;;;;10.22;100.00;102716.72;4935521;28;50829;-82
2023/02/01 10:18:39;;;;;;;;;7.75;6.00;;;;;10.31;100.00;102708.44;4934205;28;49801;-79
2023/02/01 10:21:39;;;;;;;;;6.50;6.00;;;;;10.23;100.00;102713.31;4935204;28;49848;-76
2023/02/01 10:24:16;;;;;;;;;7.50;6.25;;;;;10.21;100.00;102719.25;4934898;28;49735;-75
2023/02/01 10:27:11;;;;;;;;;8.50;6.50;;;;;9.86;100.00;102668.41;4934649;28;49952;-79
2023/02/01 10:29:40;;;;;;;;;14.50;9.50;;;;;10.00;100.00;102695.38;4934576;28;49915;-79
2023/02/01 10:32:13;;;;;;;;;8.00;7.00;;;;;9.88;100.00;102666.75;4934391;28;49891;-77
2023/02/01 10:34:39;;;;;;;;;5.00;3.50;;;;;10.14;100.00;102723.28;4934997;28;49760;-78
2023/02/01 10:37:19;;;;;;;;;10.75;6.75;;;;;10.07;100.00;102726.38;4934699;28;49812;-77
2023/02/01 10:39:52;;;;;;;;;9.00;6.50;;;;;9.91;100.00;102694.88;4934682;28;49799;-77
2023/02/01 10:42:20;;;;;;;;;6.25;4.00;;;;;10.03;100.00;102717.41;4934735;28;49789;-76
2023/02/01 10:44:47;;;;;;;;;3.75;2.50;;;;;9.95;100.00;102695.16;4934791;28;49837;-77
2023/02/01 10:47:13;;;;;;;;;4.75;3.00;;;;;9.85;100.00;102681.44;4934430;28;51067;-80
2023/02/01 10:49:47;;;;;;;;;5.00;5.00;;;;;9.69;100.00;102659.63;4934554;28;49842;-77
2023/02/01 10:52:17;;;;;;;;;7.25;6.00;;;;;9.61;100.00;102629.44;4938718;28;49854;-77
2023/02/01 10:54:43;;;;;;;;;8.25;4.00;;;;;9.80;100.00;102638.31;4934692;28;49663;-77
2023/02/01 10:57:10;;;;;;;;;6.00;3.75;;;;;10.34;100.00;102711.25;4926324;28;51419;-78
2023/02/01 10:59:36;;;;;;;;;4.50;4.50;;;;;10.20;100.00;102659.69;4927891;28;49668;-80
2023/02/01 11:02:28;;;;;;;;;8.25;3.25;;;;;10.63;100.00;102706.63;4933888;28;49751;-77
2023/02/01 11:05:09;;;;;;;;;5.75;5.75;;;;;10.55;100.00;102659.84;4934251;28;49970;-77
2023/02/01 11:07:45;;;;;;;;;7.00;3.75;;;;;10.72;100.00;102670.31;4935082;28;49701;-77
2023/02/01 11:10:35;;;;;;;;;4.00;3.25;;;;;11.08;100.00;102694.88;4939285;28;49682;-79
2023/02/01 11:13:03;;;;;;;;;7.50;4.00;;;;;9.86;100.00;102474.28;4942061;28;49842;-79
2023/02/01 11:15:28;;;;;;;;;8.75;3.50;;;;;11.15;100.00;102696.97;4949236;28;49708;-74
2023/02/01 11:17:56;;;;;;;;;7.00;5.25;;;;;10.86;100.00;102630.75;4933652;28;50207;-72
2023/02/01 11:20:41;;;;;;;;;8.00;6.25;;;;;11.27;100.00;102681.78;4934875;28;49735;-71
2023/02/01 11:23:19;;;;;;;;;5.00;5.00;;;;;11.31;100.00;102672.34;4938046;28;50151;-74
2023/02/01 11:25:51;;;;;;;;;5.50;4.00;;;;;11.38;100.00;102664.81;4935231;28;50155;-70
2023/02/01 11:28:18;;;;;;;;;7.50;4.50;;;;;11.68;100.00;102688.16;4927782;28;51046;-77
2023/02/01 11:30:47;;;;;;;;;7.75;4.75;;;;;11.59;100.00;102666.69;4934387;28;49780;-77
2023/02/01 11:33:19;;;;;;;;;4.00;4.00;;;;;11.62;100.00;102679.97;4941462;28;49860;-76
2023/02/01 11:35:45;;;;;;;;;6.50;4.50;;;;;11.60;100.00;102681.63;4931026;28;49946;-82
2023/02/01 11:38:20;;;;;;;;;7.50;5.25;;;;;11.41;100.00;102651.81;4936651;28;51225;-77
2023/02/01 11:40:45;;;;;;;;;4.25;3.50;;;;;11.38;100.00;102664.81;4944826;28;49807;-76
2023/02/01 11:43:24;;;;;;;;;5.50;5.50;;;;;11.53;100.00;102692.69;4947429;28;59454;-80
2023/02/01 11:45:58;;;;;;;;;4.50;3.75;;;;;10.74;100.00;102558.31;4940564;28;50215;-76
2023/02/01 11:48:25;;;;;;;;;8.75;5.00;;;;;11.23;100.00;102664.09;4937185;28;50397;-78
2023/02/01 11:51:10;;;;;;;;;10.75;6.00;;;;;11.10;100.00;102664.34;4946566;28;49530;-75
2023/02/01 11:53:44;;;;;;;;;8.75;7.25;;;;;11.21;100.00;102678.00;4946659;28;49612;-83
2023/02/01 11:56:28;;;;;;;;;5.25;5.25;;;;;11.24;100.00;102667.63;4942294;28;49932;-76
2023/02/01 11:59:12;;;;;;;;;7.00;4.00;;;;;11.29;100.00;102667.03;4933403;28;50606;-76
2023/02/01 12:02:03;;;;;;;;;7.00;3.25;;;;;11.12;100.00;102625.88;4939485;28;49828;-74
2023/02/01 12:04:52;;;;;;;;;7.25;3.50;;;;;11.36;100.00;102655.03;4937686;28;49948;-72
2023/02/01 12:07:33;;;;;;;;;6.50;4.00;;;;;11.20;100.00;102616.63;4927655;28;49882;-68
2023/02/01 12:10:26;;;;;;;;;8.75;7.50;;;;;11.38;100.00;102648.13;4929493;28;51141;-71
2023/02/01 12:12:58;;;;;;;;;10.75;4.00;;;;;11.49;100.00;102636.41;4925223;28;49912;-73
2023/02/01 12:15:28;;;;;;;;;3.75;2.00;;;;;11.55;100.00;102627.88;4932247;28;49900;-73
2023/02/01 12:17:59;;;;;;;;;7.00;3.25;;;;;11.65;100.00;102623.13;4927568;28;49978;-73
2023/02/01 12:20:45;;;;;;;;;8.25;7.50;;;;;11.77;100.00;102622.78;4928038;28;51033;-71
2023/02/01 12:23:22;;;;;;;;;5.25;3.50;;;;;11.80;100.00;102638.75;4928100;28;50042;-71
2023/02/01 12:26:03;;;;;;;;;5.25;4.00;;;;;11.91;100.00;102632.25;4927780;28;49762;-69
2023/02/01 12:28:37;;;;;;;;;4.25;3.50;;;;;11.86;100.00;102606.53;4927087;28;49888;-68
2023/02/01 12:31:26;;;;;;;;;4.50;4.25;;;;;12.16;100.00;102634.25;4930203;28;49896;-67
2023/02/01 12:33:54;;;;;;;;;9.00;6.25;;;;;12.20;100.00;102623.00;4927715;28;49907;-68
2023/02/01 12:36:41;;;;;;;;;3.25;2.00;;;;;12.17;100.00;102619.34;4926132;28;50035;-69
2023/02/01 12:39:32;;;;;;;;;7.75;4.00;;;;;11.97;100.00;102606.22;4927006;28;49852;-69
2023/02/01 12:42:00;;;;;;;;;9.75;3.00;;;;;12.11;100.00;102624.34;4929648;28;49733;-68
2023/02/01 12:44:39;;;;;;;;;3.00;3.00;;;;;12.05;100.00;102617.06;4930318;28;49615;-69
2023/02/01 12:47:23;;;;;;;;;5.75;3.00;;;;;11.79;100.00;102596.56;4929022;28;49813;-69
2023/02/01 12:49:54;;;;;;;;;4.25;3.00;;;;;12.03;100.00;102632.78;4928915;28;49985;-69
2023/02/01 12:52:28;;;;;;;;;5.25;3.00;;;;;11.47;100.00;102528.47;4930105;28;49896;-68
2023/02/01 12:54:59;;;;;;;;;4.75;3.50;;;;;11.85;100.00;102596.84;4927833;28;50126;-69
2023/02/01 12:57:33;;;;;;;;;2.00;2.00;;;;;11.71;100.00;102562.91;4927698;28;49994;-68
2023/02/01 13:00:01;;;;;;;;;5.00;5.00;;;;;11.91;100.00;102610.28;4925093;28;49952;-68
2023/02/01 13:02:27;;;;;;;;;3.75;3.25;;;;;11.91;100.00;102602.41;4927996;28;49809;-68
2023/02/01 13:05:15;;;;;;;;;4.00;3.25;;;;;11.78;100.00;102576.34;4930137;28;50238;-68
2023/02/01 13:07:57;;;;;;;;;3.50;2.75;;;;;11.90;100.00;102577.81;4929589;28;50831;-68
2023/02/01 13:10:41;;;;;;;;;3.50;3.50;;;;;12.00;100.00;102585.28;4929825;28;49746;-68
2023/02/01 13:13:19;;;;;;;;;4.50;2.75;;;;;12.05;100.00;102598.63;4928109;28;51010;-68
2023/02/01 13:15:53;;;;;;;;;4.50;4.25;;;;;12.14;100.00;102593.75;4928686;28;50190;-69
2023/02/01 13:18:21;;;;;;;;;4.00;3.75;;;;;12.15;100.00;102568.34;4928747;28;49884;-69
2023/02/01 13:20:54;;;;;;;;;3.50;3.50;;;;;12.09;100.00;102545.28;4919585;28;50558;-69
2023/02/01 13:23:30;;;;;;;;;2.50;1.50;;;;;12.30;100.00;102577.81;4925417;28;50221;-69
2023/02/01 13:25:56;;;;;;;;;3.00;2.25;;;;;11.92;100.00;102515.59;4927622;28;49785;-68
2023/02/01 13:28:27;;;;;;;;;2.25;2.00;;;;;12.25;100.00;102578.41;4931372;28;49842;-68
2023/02/01 13:31:32;;;;;;;;;3.25;2.50;;;;;12.00;100.00;102539.63;4926153;28;49872;-67
2023/02/01 13:34:16;;;;;;;;;3.50;2.75;;;;;12.29;100.00;102580.38;4929758;28;50959;-70
2023/02/01 13:37:13;;;;;;;;;4.75;2.00;;;;;12.36;100.00;102569.28;4934350;28;50065;-68
2023/02/01 13:40:04;;;;;;;;;4.00;3.00;;;;;12.43;100.00;102566.03;4932555;28;49903;-68
2023/02/01 13:42:41;;;;;;;;;5.75;4.50;;;;;12.36;100.00;102545.56;4934015;28;50055;-68
2023/02/01 13:45:36;;;;;;;;;1.00;1.00;;;;;12.41;100.00;102564.19;4930977;28;50064;-68
2023/02/01 13:48:06;;;;;;;;;3.00;2.00;;;;;12.41;100.00;102569.44;4933016;28;49892;-69
2023/02/01 13:50:37;;;;;;;;;4.25;3.75;;;;;12.40;100.00;102572.91;4931705;28;49962;-68
2023/02/01 13:53:11;;;;;;;;;3.25;3.25;;;;;12.39;100.00;102566.75;4936360;28;50603;-69
2023/02/01 13:55:40;;;;;;;;;3.50;2.75;;;;;12.31;100.00;102563.78;4935890;28;50550;-67
2023/02/01 13:58:13;;;;;;;;;3.00;3.00;;;;;12.31;100.00;102565.53;4936134;28;49762;-69
2023/02/01 14:00:40;;;;;;;;;3.00;3.00;;;;;12.24;100.00;102569.63;4933988;28;49897;-68
2023/02/01 14:03:09;;;;;;;;;2.00;2.00;;;;;12.28;100.00;102571.56;4930069;28;49875;-71
2023/02/01 14:05:38;;;;;;;;;2.25;2.25;;;;;12.32;100.00;102559.44;4930067;28;51249;-68
2023/02/01 14:08:07;;;;;;;;;4.00;4.00;;;;;12.35;100.00;102570.06;4937725;28;49862;-69
2023/02/01 14:10:44;;;;;;;;;3.50;3.50;;;;;12.39;100.00;102564.13;4936924;28;49820;-69
2023/02/01 14:13:29;;;;;;;;;5.00;4.75;;;;;12.16;100.00;102512.19;4937659;28;49727;-71
2023/02/01 14:16:03;;;;;;;;;3.75;2.75;;;;;12.41;100.00;102557.19;4936209;28;52458;-69
2023/02/01 14:18:35;;;;;;;;;4.00;4.00;;;;;12.42;100.00;102560.72;4936482;28;49957;-67
2023/02/01 14:21:15;;;;;;;;;8.00;3.00;;;;;12.39;100.00;102553.59;4937657;28;49979;-68
2023/02/01 14:24:03;;;;;;;;;4.75;4.75;;;;;12.40;100.00;102547.47;4937837;28;49770;-70
2023/02/01 14:26:38;;;;;;;;;5.50;3.75;;;;;12.43;100.00;102552.88;4936891;28;49982;-69
2023/02/01 14:29:12;;;;;;;;;5.50;2.25;;;;;12.42;100.00;102550.16;4936255;28;49932;-68
2023/02/01 14:31:53;;;;;;;;;3.75;3.75;;;;;12.36;100.00;102552.56;4935829;28;49795;-68
2023/02/01 14:34:31;;;;;;;;;5.75;3.00;;;;;12.35;100.00;102559.53;4932271;28;50365;-67
2023/02/01 14:37:02;;;;;;;;;5.50;4.50;;;;;12.07;100.00;102507.47;4936971;28;49725;-67
2023/02/01 14:39:39;;;;;;;;;3.25;3.00;;;;;12.41;100.00;102556.28;4936482;28;51122;-67
2023/02/01 14:42:14;;;;;;;;;1.75;1.75;;;;;12.16;100.00;102521.03;4935726;28;49716;-68
2023/02/01 14:44:40;;;;;;;;;6.75;5.00;;;;;12.32;100.00;102552.41;4936891;28;49525;-67
2023/02/01 14:47:09;;;;;;;;;3.00;1.00;;;;;12.41;100.00;102564.19;4933318;28;50760;-68
2023/02/01 14:50:15;;;;;;;;;4.00;3.00;;;;;12.33;100.00;102548.94;4930816;28;49672;-68
2023/02/01 14:52:46;;;;;;;;;5.75;4.00;;;;;12.41;100.00;102567.72;4933840;28;50054;-67
2023/02/01 14:55:20;;;;;;;;;5.75;3.50;;;;;12.00;100.00;102505.41;4934457;28;49755;-68
2023/02/01 14:57:49;;;;;;;;;4.00;4.00;;;;;12.24;100.00;102566.09;4931567;28;50964;-67
2023/02/01 15:00:21;;;;;;;;;3.50;3.00;;;;;12.17;100.00;102564.97;4933982;28;49794;-67
2023/02/01 15:02:49;;;;;;;;;7.00;3.50;;;;;12.10;100.00;102557.63;4933598;28;49666;-67
2023/02/01 15:05:34;;;;;;;;;4.25;2.50;;;;;11.90;100.00;102534.81;4933064;28;49992;-68
2023/02/01 15:08:17;;;;;;;;;3.00;3.00;;;;;12.16;100.00;102562.22;4930455;28;50792;-67
2023/02/01 15:10:48;;;;;;;;;4.75;3.75;;;;;12.06;100.00;102550.41;4932827;28;49791;-67
2023/02/01 15:13:25;;;;;;;;;5.00;3.00;;;;;12.09;100.00;102550.56;4931021;28;50316;-67
2023/02/01 15:16:12;;;;;;;;;4.00;2.50;;;;;11.94;100.00;102505.13;4933711;28;49973;-68
2023/02/01 15:18:38;;;;;;;;;3.00;2.00;;;;;12.13;100.00;102562.09;4932004;28;51752;-68
2023/02/01 15:21:05;;;;;;;;;1.50;1.50;;;;;12.02;100.00;102535.31;4933554;28;50038;-67
2023/02/01 15:23:31;;;;;;;;;4.00;2.00;;;;;11.93;100.00;102532.28;4931303;28;49752;-68
2023/02/01 15:25:57;;;;;;;;;7.75;3.50;;;;;11.97;100.00;102543.03;4933459;28;49668;-67
2023/02/01 15:28:23;;;;;;;;;4.75;4.75;;;;;11.99;100.00;102544.00;4933019;28;49816;-65
2023/02/01 15:30:53;;;;;;;;;3.00;3.00;;;;;11.75;100.00;102506.03;4933366;28;49725;-71
2023/02/01 15:33:20;;;;;;;;;3.25;2.00;;;;;12.08;100.00;102561.03;4933193;28;49738;-69
2023/02/01 15:35:48;;;;;;;;;3.00;3.00;;;;;11.71;100.00;102514.66;4931718;28;50008;-70
2023/02/01 15:38:19;;;;;;;;;8.00;4.00;;;;;12.02;100.00;102567.81;4931858;28;49964;-71
2023/02/01 15:41:20;;;;;;;;;3.00;3.00;;;;;11.89;100.00;102562.84;4932175;28;49664;-67
2023/02/01 15:43:54;;;;;;;;;4.00;3.00;;;;;11.91;100.00;102571.72;4931074;28;49555;-65
2023/02/01 15:46:42;;;;;;;;;2.75;2.00;;;;;11.90;100.00;102569.91;4933686;28;49756;-68
2023/02/01 15:49:31;;;;;;;;;1.50;1.50;;;;;11.86;100.00;102574.97;4932721;28;50776;-67
2023/02/01 15:52:01;;;;;;;;;3.00;3.00;;;;;11.65;100.00;102554.72;4931700;28;49658;-67
2023/02/01 15:54:46;;;;;;;;;2.75;2.75;;;;;11.43;100.00;102515.16;4933680;28;49763;-68
2023/02/01 15:57:19;;;;;;;;;4.50;3.50;;;;;11.60;100.00;102550.09;4932476;28;50034;-67
2023/02/01 15:59:45;;;;;;;;;4.75;2.75;;;;;11.74;100.00;102583.19;4929835;28;50012;-72
2023/02/01 16:02:34;;;;;;;;;4.75;4.75;;;;;11.68;100.00;102589.09;4932069;28;49783;-72
2023/02/01 16:04:59;;;;;;;;;4.50;2.25;;;;;11.36;100.00;102544.59;4932042;28;49915;-69
2023/02/01 16:07:29;;;;;;;;;3.50;3.00;;;;;11.73;100.00;102591.91;4929665;28;50106;-71
2023/02/01 16:09:58;;;;;;;;;5.75;3.00;;;;;11.74;100.00;102599.84;4929598;28;49829;-70
2023/02/01 16:12:45;;;;;;;;;4.00;3.25;;;;;11.74;100.00;102593.69;4927479;28;50128;-67
2023/02/01 16:15:11;;;;;;;;;3.25;3.25;;;;;11.79;100.00;102584.31;4927847;28;49869;-67
2023/02/01 16:17:37;;;;;;;;;4.00;3.75;;;;;11.30;100.00;102502.28;4930142;28;49893;-67
2023/02/01 16:20:03;;;;;;;;;2.00;2.00;;;;;11.48;100.00;102534.63;4933048;28;49875;-67
2023/02/01 16:22:28;;;;;;;;;3.00;3.00;;;;;11.52;100.00;102564.63;4932643;28;50533;-66
2023/02/01 16:24:53;;;;;;;;;3.50;2.50;;;;;11.49;100.00;102561.88;4932720;28;49849;-67
2023/02/01 16:27:20;;;;;;;;;4.00;3.00;;;;;11.40;100.00;102571.13;4932102;28;57408;-67
2023/02/01 16:29:46;;;;;;;;;5.25;4.00;;;;;11.38;100.00;102574.50;4930259;28;50816;-71
2023/02/01 16:32:18;;;;;;;;;5.00;1.25;;;;;11.45;100.00;102602.88;4929272;28;50110;-67
2023/02/01 16:34:45;;;;;;;;;5.50;2.75;;;;;11.32;100.00;102590.91;4931479;28;49925;-70
2023/02/01 16:37:19;;;;;;;;;2.00;2.00;;;;;11.26;100.00;102579.19;4929977;28;50790;-66
2023/02/01 16:39:44;;;;;;;;;3.00;3.00;;;;;11.03;100.00;102552.75;4931272;28;50970;-67
2023/02/01 16:42:12;;;;;;;;;4.25;3.25;;;;;11.24;100.00;102594.00;4931276;28;49845;-67
2023/02/01 16:44:38;;;;;;;;;7.50;4.75;;;;;11.26;100.00;102611.63;4930252;28;50839;-68
2023/02/01 16:47:11;;;;;;;;;2.00;1.50;;;;;11.05;100.00;102595.75;4930319;28;49806;-73
2023/02/01 16:49:37;;;;;;;;;7.50;3.25;;;;;11.05;100.00;102601.00;4929932;28;50667;-67
2023/02/01 16:52:03;;;;;;;;;2.75;2.75;;;;;10.99;100.00;102591.91;4928337;28;50122;-72
2023/02/01 16:54:28;;;;;;;;;3.00;3.00;;;;;11.06;100.00;102612.41;4928414;28;50012;-68
2023/02/01 16:56:54;;;;;;;;;2.00;2.00;;;;;10.99;100.00;102608.59;4929805;28;50009;-66
2023/02/01 16:59:19;;;;;;;;;3.00;3.00;;;;;10.91;100.00;102601.19;4930139;28;50128;-68
2023/02/01 17:01:44;;;;;;;;;2.50;2.50;;;;;10.87;100.00;102605.38;4930202;28;63341;-68
2023/02/01 17:04:11;;;;;;;;;3.25;3.25;;;;;10.66;100.00;102585.94;4930170;28;60446;-67
2023/02/01 17:06:37;;;;;;;;;7.00;2.25;;;;;10.93;100.00;102628.44;4931121;28;50086;-67
2023/02/01 17:09:04;;;;;;;;;2.25;2.25;;;;;10.89;100.00;102628.25;4930163;28;50096;-66
2023/02/01 17:11:29;;;;;;;;;6.50;4.00;;;;;10.79;100.00;102606.72;4930809;28;49952;-67
2023/02/01 17:13:57;;;;;;;;;4.00;3.00;;;;;10.53;100.00;102563.44;4931712;28;49688;-67
2023/02/01 17:16:27;;;;;;;;;4.25;3.00;;;;;10.57;100.00;102562.75;4926170;28;49654;-67
2023/02/01 17:18:59;;;;;;;;;4.00;4.00;;;;;10.73;100.00;102616.94;4932228;28;50886;-66
2023/02/01 17:21:27;;;;;;;;;7.00;4.50;;;;;10.70;100.00;102606.25;4932158;28;49753;-74
2023/02/01 17:23:53;;;;;;;;;2.50;2.50;;;;;10.65;100.00;102611.31;4930663;28;49762;-70
2023/02/01 17:26:19;;;;;;;;;5.75;4.25;;;;;10.74;100.00;102626.63;4932524;28;50020;-66
2023/02/01 17:28:44;;;;;;;;;4.00;4.00;;;;;10.68;100.00;102632.47;4931576;28;51036;-68
2023/02/01 17:31:15;;;;;;;;;5.50;3.50;;;;;10.65;100.00;102636.66;4931737;28;49741;-69
2023/02/01 17:33:41;;;;;;;;;7.25;4.00;;;;;10.31;100.00;102598.19;4932044;28;49876;-71
2023/02/01 17:36:12;;;;;;;;;6.25;2.25;;;;;10.58;100.00;102653.84;4931660;28;49932;-70
2023/02/01 17:38:37;;;;;;;;;10.50;7.50;;;;;10.21;100.00;102588.00;4932296;28;49713;-70
2023/02/01 17:41:03;;;;;;;;;4.25;4.00;;;;;10.19;100.00;102601.06;4932149;28;49876;-70
2023/02/01 17:43:29;;;;;;;;;7.00;4.75;;;;;10.35;100.00;102623.78;4931860;28;49697;-74
2023/02/01 17:45:59;;;;;;;;;3.50;3.50;;;;;10.57;100.00;102673.94;4924465;28;49755;-70
2023/02/01 17:48:25;;;;;;;;;10.25;7.00;;;;;10.53;100.00;102660.59;4928913;28;51771;-68
2023/02/01 17:50:57;;;;;;;;;6.25;4.75;;;;;10.62;100.00;102678.53;4940235;28;49614;-68
2023/02/01 17:53:26;;;;;;;;;7.00;5.00;;;;;10.26;100.00;102594.44;4937316;28;49730;-70
2023/02/01 17:55:52;;;;;;;;;7.25;4.50;;;;;10.30;100.00;102606.88;4931960;28;49504;-67
2023/02/01 17:58:18;;;;;;;;;7.25;5.25;;;;;10.35;100.00;102612.38;4931210;28;49737;-68
2023/02/01 18:00:46;;;;;;;;;9.00;5.00;;;;;10.34;100.00;102613.22;4931715;28;49612;-68
2023/02/01 18:03:26;;;;;;;;;7.75;6.50;;;;;10.64;100.00;102669.00;4931695;28;50085;-68
2023/02/01 18:05:53;;;;;;;;;8.00;5.50;;;;;10.38;100.00;102617.78;4930150;28;49841;-68
2023/02/01 18:08:24;;;;;;;;;8.25;6.75;;;;;10.28;100.00;102606.81;4931199;28;51101;-70
2023/02/01 18:10:53;;;;;;;;;9.25;9.25;;;;;10.46;100.00;102643.59;4931633;28;49688;-71